sensor_id;sensor_type;location;lat;lon;timestamp;P1;durP1;ratioP1;P2;durP2;ratioP2
17065;SDS011;23120;52.336;21.182;2023-04-28T00:01:15;0.30;;;0.30;;
17065;SDS011;23120;52.336;21.182;2023-04-28T00:03:42;0.20;;;0.20;;
17065;SDS011;23120;52.336;21.182;2023-04-28T00:06:09;0.30;;;0.30;;
17065;SDS011;23120;52.336;21.182;2023-04-28T00:08:36;0.20;;;0.20;;
17065;SDS011;23120;52.336;21.182;2023-04-28T00:11:07;0.20;;;0.20;;
17065;SDS011;23120;52.336;21.182;2023-04-28T00:13:35;0.30;;;0.30;;
17065;SDS011;23120;52.336;21.182;2023-04-28T00:16:01;0.30;;;0.30;;
17065;SDS011;23120;52.336;21.182;2023-04-28T00:18:28;0.27;;;0.27;;
17065;SDS011;23120;52.336;21.182;2023-04-28T00:20:55;0.30;;;0.30;;
17065;SDS011;23120;52.336;21.182;2023-04-28T00:23:22;0.20;;;0.20;;
17065;SDS011;23120;52.336;21.182;2023-04-28T00:25:49;0.20;;;0.20;;
17065;SDS011;23120;52.336;21.182;2023-04-28T00:28:18;0.23;;;0.23;;
17065;SDS011;23120;52.336;21.182;2023-04-28T00:30:45;0.30;;;0.30;;
17065;SDS011;23120;52.336;21.182;2023-04-28T00:33:12;0.30;;;0.30;;
17065;SDS011;23120;52.336;21.182;2023-04-28T00:35:40;0.30;;;0.30;;
17065;SDS011;23120;52.336;21.182;2023-04-28T00:38:06;0.30;;;0.30;;
17065;SDS011;23120;52.336;21.182;2023-04-28T00:40:33;0.20;;;0.20;;
17065;SDS011;23120;52.336;21.182;2023-04-28T00:43:01;0.30;;;0.30;;
17065;SDS011;23120;52.336;21.182;2023-04-28T00:45:29;0.20;;;0.20;;
17065;SDS011;23120;52.336;21.182;2023-04-28T00:47:56;0.23;;;0.23;;
17065;SDS011;23120;52.336;21.182;2023-04-28T00:50:24;0.30;;;0.30;;
17065;SDS011;23120;52.336;21.182;2023-04-28T00:52:51;0.30;;;0.30;;
17065;SDS011;23120;52.336;21.182;2023-04-28T00:55:18;0.30;;;0.30;;
17065;SDS011;23120;52.336;21.182;2023-04-28T00:57:47;0.30;;;0.30;;
17065;SDS011;23120;52.336;21.182;2023-04-28T01:00:14;0.30;;;0.30;;
17065;SDS011;23120;52.336;21.182;2023-04-28T01:02:42;0.30;;;0.30;;
17065;SDS011;23120;52.336;21.182;2023-04-28T01:05:09;0.30;;;0.30;;
17065;SDS011;23120;52.336;21.182;2023-04-28T01:07:37;0.30;;;0.30;;
17065;SDS011;23120;52.336;21.182;2023-04-28T01:10:05;0.30;;;0.30;;
17065;SDS011;23120;52.336;21.182;2023-04-28T01:12:34;0.30;;;0.30;;
17065;SDS011;23120;52.336;21.182;2023-04-28T01:15:01;0.20;;;0.20;;
17065;SDS011;23120;52.336;21.182;2023-04-28T01:17:30;0.30;;;0.30;;
17065;SDS011;23120;52.336;21.182;2023-04-28T01:19:59;0.30;;;0.30;;
17065;SDS011;23120;52.336;21.182;2023-04-28T01:22:26;0.30;;;0.30;;
17065;SDS011;23120;52.336;21.182;2023-04-28T01:24:54;0.30;;;0.30;;
17065;SDS011;23120;52.336;21.182;2023-04-28T01:27:22;0.30;;;0.30;;
17065;SDS011;23120;52.336;21.182;2023-04-28T01:29:49;0.30;;;0.30;;
17065;SDS011;23120;52.336;21.182;2023-04-28T01:32:16;0.30;;;0.30;;
17065;SDS011;23120;52.336;21.182;2023-04-28T01:34:42;0.30;;;0.30;;
17065;SDS011;23120;52.336;21.182;2023-04-28T01:37:09;0.30;;;0.30;;
17065;SDS011;23120;52.336;21.182;2023-04-28T01:39:36;0.30;;;0.30;;
17065;SDS011;23120;52.336;21.182;2023-04-28T01:42:04;0.30;;;0.30;;
17065;SDS011;23120;52.336;21.182;2023-04-28T01:44:31;0.30;;;0.30;;
17065;SDS011;23120;52.336;21.182;2023-04-28T01:46:59;0.30;;;0.30;;
17065;SDS011;23120;52.336;21.182;2023-04-28T01:49:25;0.30;;;0.30;;
17065;SDS011;23120;52.336;21.182;2023-04-28T01:51:52;0.30;;;0.30;;
17065;SDS011;23120;52.336;21.182;2023-04-28T01:54:19;0.30;;;0.30;;
17065;SDS011;23120;52.336;21.182;2023-04-28T01:56:46;0.30;;;0.30;;
17065;SDS011;23120;52.336;21.182;2023-04-28T01:59:16;0.30;;;0.30;;
17065;SDS011;23120;52.336;21.182;2023-04-28T02:01:44;0.30;;;0.30;;
17065;SDS011;23120;52.336;21.182;2023-04-28T02:04:11;0.30;;;0.30;;
17065;SDS011;23120;52.336;21.182;2023-04-28T02:06:38;0.30;;;0.30;;
17065;SDS011;23120;52.336;21.182;2023-04-28T02:09:05;0.30;;;0.30;;
17065;SDS011;23120;52.336;21.182;2023-04-28T02:11:32;0.30;;;0.30;;
17065;SDS011;23120;52.336;21.182;2023-04-28T02:13:59;0.30;;;0.30;;
17065;SDS011;23120;52.336;21.182;2023-04-28T02:16:27;0.30;;;0.30;;
17065;SDS011;23120;52.336;21.182;2023-04-28T02:18:54;0.30;;;0.30;;
17065;SDS011;23120;52.336;21.182;2023-04-28T02:21:20;0.30;;;0.30;;
17065;SDS011;23120;52.336;21.182;2023-04-28T02:23:47;0.30;;;0.30;;
17065;SDS011;23120;52.336;21.182;2023-04-28T02:26:14;0.30;;;0.30;;
17065;SDS011;23120;52.336;21.182;2023-04-28T02:28:41;0.30;;;0.30;;
17065;SDS011;23120;52.336;21.182;2023-04-28T02:31:08;0.30;;;0.30;;
17065;SDS011;23120;52.336;21.182;2023-04-28T02:33:39;0.30;;;0.30;;
17065;SDS011;23120;52.336;21.182;2023-04-28T02:36:07;0.30;;;0.30;;
17065;SDS011;23120;52.336;21.182;2023-04-28T02:38:35;0.30;;;0.30;;
17065;SDS011;23120;52.336;21.182;2023-04-28T02:41:05;0.30;;;0.30;;
17065;SDS011;23120;52.336;21.182;2023-04-28T02:43:34;0.20;;;0.20;;
17065;SDS011;23120;52.336;21.182;2023-04-28T02:46:01;0.30;;;0.30;;
17065;SDS011;23120;52.336;21.182;2023-04-28T02:48:29;0.30;;;0.30;;
17065;SDS011;23120;52.336;21.182;2023-04-28T02:50:57;0.30;;;0.30;;
17065;SDS011;23120;52.336;21.182;2023-04-28T02:53:24;0.30;;;0.30;;
17065;SDS011;23120;52.336;21.182;2023-04-28T02:55:51;0.30;;;0.30;;
17065;SDS011;23120;52.336;21.182;2023-04-28T02:58:18;0.30;;;0.30;;
17065;SDS011;23120;52.336;21.182;2023-04-28T03:00:45;0.30;;;0.30;;
17065;SDS011;23120;52.336;21.182;2023-04-28T03:03:13;0.30;;;0.30;;
17065;SDS011;23120;52.336;21.182;2023-04-28T03:05:40;0.23;;;0.23;;
17065;SDS011;23120;52.336;21.182;2023-04-28T03:08:08;0.30;;;0.30;;
17065;SDS011;23120;52.336;21.182;2023-04-28T03:10:35;0.30;;;0.30;;
17065;SDS011;23120;52.336;21.182;2023-04-28T03:13:03;0.30;;;0.30;;
17065;SDS011;23120;52.336;21.182;2023-04-28T03:15:30;0.30;;;0.30;;
17065;SDS011;23120;52.336;21.182;2023-04-28T03:17:57;0.30;;;0.30;;
17065;SDS011;23120;52.336;21.182;2023-04-28T03:20:24;0.30;;;0.30;;
17065;SDS011;23120;52.336;21.182;2023-04-28T03:22:51;0.30;;;0.30;;
17065;SDS011;23120;52.336;21.182;2023-04-28T03:25:20;0.30;;;0.30;;
17065;SDS011;23120;52.336;21.182;2023-04-28T03:27:49;0.30;;;0.30;;
17065;SDS011;23120;52.336;21.182;2023-04-28T03:30:16;0.30;;;0.30;;
17065;SDS011;23120;52.336;21.182;2023-04-28T03:32:44;0.30;;;0.30;;
17065;SDS011;23120;52.336;21.182;2023-04-28T03:35:11;0.30;;;0.30;;
17065;SDS011;23120;52.336;21.182;2023-04-28T03:37:39;0.30;;;0.30;;
17065;SDS011;23120;52.336;21.182;2023-04-28T03:40:06;0.30;;;0.30;;
17065;SDS011;23120;52.336;21.182;2023-04-28T03:42:55;0.30;;;0.30;;
17065;SDS011;23120;52.336;21.182;2023-04-28T03:45:27;0.30;;;0.30;;
17065;SDS011;23120;52.336;21.182;2023-04-28T03:47:53;0.30;;;0.30;;
17065;SDS011;23120;52.336;21.182;2023-04-28T03:50:20;0.30;;;0.30;;
17065;SDS011;23120;52.336;21.182;2023-04-28T03:52:47;0.30;;;0.30;;
17065;SDS011;23120;52.336;21.182;2023-04-28T03:55:14;0.30;;;0.30;;
17065;SDS011;23120;52.336;21.182;2023-04-28T03:57:41;0.30;;;0.30;;
17065;SDS011;23120;52.336;21.182;2023-04-28T04:00:10;0.30;;;0.30;;
17065;SDS011;23120;52.336;21.182;2023-04-28T04:02:41;0.30;;;0.30;;
17065;SDS011;23120;52.336;21.182;2023-04-28T04:05:08;0.30;;;0.30;;
17065;SDS011;23120;52.336;21.182;2023-04-28T04:07:35;0.30;;;0.30;;
17065;SDS011;23120;52.336;21.182;2023-04-28T04:10:03;0.30;;;0.30;;
17065;SDS011;23120;52.336;21.182;2023-04-28T04:12:33;0.30;;;0.30;;
17065;SDS011;23120;52.336;21.182;2023-04-28T04:14:59;0.30;;;0.30;;
17065;SDS011;23120;52.336;21.182;2023-04-28T04:17:30;0.30;;;0.30;;
17065;SDS011;23120;52.336;21.182;2023-04-28T04:19:57;0.30;;;0.30;;
17065;SDS011;23120;52.336;21.182;2023-04-28T04:22:25;0.30;;;0.30;;
17065;SDS011;23120;52.336;21.182;2023-04-28T04:24:52;0.30;;;0.30;;
17065;SDS011;23120;52.336;21.182;2023-04-28T04:27:18;0.30;;;0.30;;
17065;SDS011;23120;52.336;21.182;2023-04-28T04:29:45;0.30;;;0.30;;
17065;SDS011;23120;52.336;21.182;2023-04-28T04:32:13;0.30;;;0.30;;
17065;SDS011;23120;52.336;21.182;2023-04-28T04:34:42;0.30;;;0.30;;
17065;SDS011;23120;52.336;21.182;2023-04-28T04:37:10;0.30;;;0.30;;
17065;SDS011;23120;52.336;21.182;2023-04-28T04:39:44;0.30;;;0.30;;
17065;SDS011;23120;52.336;21.182;2023-04-28T04:42:11;0.30;;;0.30;;
17065;SDS011;23120;52.336;21.182;2023-04-28T04:44:43;0.30;;;0.30;;
17065;SDS011;23120;52.336;21.182;2023-04-28T04:47:19;0.30;;;0.30;;
17065;SDS011;23120;52.336;21.182;2023-04-28T04:49:47;0.30;;;0.30;;
17065;SDS011;23120;52.336;21.182;2023-04-28T04:52:14;0.30;;;0.30;;
17065;SDS011;23120;52.336;21.182;2023-04-28T04:54:41;0.30;;;0.30;;
17065;SDS011;23120;52.336;21.182;2023-04-28T04:57:09;0.30;;;0.30;;
17065;SDS011;23120;52.336;21.182;2023-04-28T04:59:52;0.30;;;0.30;;
17065;SDS011;23120;52.336;21.182;2023-04-28T05:02:19;0.30;;;0.30;;
17065;SDS011;23120;52.336;21.182;2023-04-28T05:04:48;0.30;;;0.30;;
17065;SDS011;23120;52.336;21.182;2023-04-28T05:07:15;0.30;;;0.30;;
17065;SDS011;23120;52.336;21.182;2023-04-28T05:09:42;0.30;;;0.30;;
17065;SDS011;23120;52.336;21.182;2023-04-28T05:12:10;0.30;;;0.30;;
17065;SDS011;23120;52.336;21.182;2023-04-28T05:14:36;0.30;;;0.30;;
17065;SDS011;23120;52.336;21.182;2023-04-28T05:17:03;0.30;;;0.30;;
17065;SDS011;23120;52.336;21.182;2023-04-28T05:19:34;0.30;;;0.30;;
17065;SDS011;23120;52.336;21.182;2023-04-28T05:22:03;0.30;;;0.30;;
17065;SDS011;23120;52.336;21.182;2023-04-28T05:24:31;0.20;;;0.20;;
17065;SDS011;23120;52.336;21.182;2023-04-28T05:27:00;0.30;;;0.30;;
17065;SDS011;23120;52.336;21.182;2023-04-28T05:29:28;0.30;;;0.30;;
17065;SDS011;23120;52.336;21.182;2023-04-28T05:31:55;0.30;;;0.30;;
17065;SDS011;23120;52.336;21.182;2023-04-28T05:34:23;0.30;;;0.30;;
17065;SDS011;23120;52.336;21.182;2023-04-28T05:36:50;0.20;;;0.20;;
17065;SDS011;23120;52.336;21.182;2023-04-28T05:39:22;0.20;;;0.20;;
17065;SDS011;23120;52.336;21.182;2023-04-28T05:41:49;0.20;;;0.20;;
17065;SDS011;23120;52.336;21.182;2023-04-28T05:44:15;0.20;;;0.20;;
17065;SDS011;23120;52.336;21.182;2023-04-28T05:46:46;0.20;;;0.20;;
17065;SDS011;23120;52.336;21.182;2023-04-28T05:49:16;0.30;;;0.30;;
17065;SDS011;23120;52.336;21.182;2023-04-28T05:51:43;0.30;;;0.30;;
17065;SDS011;23120;52.336;21.182;2023-04-28T05:54:10;0.30;;;0.30;;
17065;SDS011;23120;52.336;21.182;2023-04-28T05:56:43;0.20;;;0.20;;
17065;SDS011;23120;52.336;21.182;2023-04-28T05:59:10;0.20;;;0.20;;
17065;SDS011;23120;52.336;21.182;2023-04-28T06:01:37;0.20;;;0.20;;
17065;SDS011;23120;52.336;21.182;2023-04-28T06:04:04;0.20;;;0.20;;
17065;SDS011;23120;52.336;21.182;2023-04-28T06:06:31;0.20;;;0.20;;
17065;SDS011;23120;52.336;21.182;2023-04-28T06:08:59;0.20;;;0.20;;
17065;SDS011;23120;52.336;21.182;2023-04-28T06:11:27;0.30;;;0.30;;
17065;SDS011;23120;52.336;21.182;2023-04-28T06:13:55;0.23;;;0.23;;
17065;SDS011;23120;52.336;21.182;2023-04-28T06:16:32;0.20;;;0.20;;
17065;SDS011;23120;52.336;21.182;2023-04-28T06:19:07;0.20;;;0.20;;
17065;SDS011;23120;52.336;21.182;2023-04-28T06:21:35;0.20;;;0.20;;
17065;SDS011;23120;52.336;21.182;2023-04-28T06:24:02;0.30;;;0.30;;
17065;SDS011;23120;52.336;21.182;2023-04-28T06:26:29;0.20;;;0.20;;
17065;SDS011;23120;52.336;21.182;2023-04-28T06:28:57;0.20;;;0.20;;
17065;SDS011;23120;52.336;21.182;2023-04-28T06:31:24;0.20;;;0.20;;
17065;SDS011;23120;52.336;21.182;2023-04-28T06:33:52;0.20;;;0.20;;
17065;SDS011;23120;52.336;21.182;2023-04-28T06:36:21;0.20;;;0.20;;
17065;SDS011;23120;52.336;21.182;2023-04-28T06:38:48;0.20;;;0.20;;
17065;SDS011;23120;52.336;21.182;2023-04-28T06:41:15;0.30;;;0.30;;
17065;SDS011;23120;52.336;21.182;2023-04-28T06:43:46;0.20;;;0.20;;
17065;SDS011;23120;52.336;21.182;2023-04-28T06:46:19;0.20;;;0.20;;
17065;SDS011;23120;52.336;21.182;2023-04-28T06:48:46;0.20;;;0.20;;
17065;SDS011;23120;52.336;21.182;2023-04-28T06:51:15;0.30;;;0.30;;
17065;SDS011;23120;52.336;21.182;2023-04-28T06:53:42;0.20;;;0.20;;
17065;SDS011;23120;52.336;21.182;2023-04-28T06:56:09;0.20;;;0.20;;
17065;SDS011;23120;52.336;21.182;2023-04-28T06:58:35;0.30;;;0.30;;
17065;SDS011;23120;52.336;21.182;2023-04-28T07:01:14;0.20;;;0.20;;
17065;SDS011;23120;52.336;21.182;2023-04-28T07:04:23;0.20;;;0.20;;
17065;SDS011;23120;52.336;21.182;2023-04-28T07:06:51;0.20;;;0.20;;
17065;SDS011;23120;52.336;21.182;2023-04-28T07:09:18;0.20;;;0.20;;
17065;SDS011;23120;52.336;21.182;2023-04-28T07:11:45;0.30;;;0.30;;
17065;SDS011;23120;52.336;21.182;2023-04-28T07:14:11;0.20;;;0.20;;
17065;SDS011;23120;52.336;21.182;2023-04-28T07:16:38;0.20;;;0.20;;
17065;SDS011;23120;52.336;21.182;2023-04-28T07:19:08;0.30;;;0.30;;
17065;SDS011;23120;52.336;21.182;2023-04-28T07:21:36;0.30;;;0.30;;
17065;SDS011;23120;52.336;21.182;2023-04-28T07:24:05;0.20;;;0.20;;
17065;SDS011;23120;52.336;21.182;2023-04-28T07:26:32;0.20;;;0.20;;
17065;SDS011;23120;52.336;21.182;2023-04-28T07:28:59;0.30;;;0.30;;
17065;SDS011;23120;52.336;21.182;2023-04-28T07:31:26;0.23;;;0.23;;
17065;SDS011;23120;52.336;21.182;2023-04-28T07:33:56;0.20;;;0.20;;
17065;SDS011;23120;52.336;21.182;2023-04-28T07:36:23;0.20;;;0.20;;
17065;SDS011;23120;52.336;21.182;2023-04-28T07:38:52;0.20;;;0.20;;
17065;SDS011;23120;52.336;21.182;2023-04-28T07:41:22;0.20;;;0.20;;
17065;SDS011;23120;52.336;21.182;2023-04-28T07:43:49;0.20;;;0.20;;
17065;SDS011;23120;52.336;21.182;2023-04-28T07:46:15;0.20;;;0.20;;
17065;SDS011;23120;52.336;21.182;2023-04-28T07:48:42;0.20;;;0.20;;
17065;SDS011;23120;52.336;21.182;2023-04-28T07:51:09;0.20;;;0.20;;
17065;SDS011;23120;52.336;21.182;2023-04-28T07:53:36;0.20;;;0.20;;
17065;SDS011;23120;52.336;21.182;2023-04-28T07:56:07;0.20;;;0.20;;
17065;SDS011;23120;52.336;21.182;2023-04-28T07:58:33;0.20;;;0.20;;
17065;SDS011;23120;52.336;21.182;2023-04-28T08:01:01;0.20;;;0.20;;
17065;SDS011;23120;52.336;21.182;2023-04-28T08:03:28;0.20;;;0.20;;
17065;SDS011;23120;52.336;21.182;2023-04-28T08:05:55;0.20;;;0.20;;
17065;SDS011;23120;52.336;21.182;2023-04-28T08:08:23;0.20;;;0.20;;
17065;SDS011;23120;52.336;21.182;2023-04-28T08:10:50;0.20;;;0.20;;
17065;SDS011;23120;52.336;21.182;2023-04-28T08:13:18;0.20;;;0.20;;
17065;SDS011;23120;52.336;21.182;2023-04-28T08:15:46;0.20;;;0.20;;
17065;SDS011;23120;52.336;21.182;2023-04-28T08:18:13;0.20;;;0.20;;
17065;SDS011;23120;52.336;21.182;2023-04-28T08:20:40;0.20;;;0.20;;
17065;SDS011;23120;52.336;21.182;2023-04-28T08:23:07;0.30;;;0.30;;
17065;SDS011;23120;52.336;21.182;2023-04-28T08:25:34;0.20;;;0.20;;
17065;SDS011;23120;52.336;21.182;2023-04-28T08:28:01;0.20;;;0.20;;
17065;SDS011;23120;52.336;21.182;2023-04-28T08:30:29;0.20;;;0.20;;
17065;SDS011;23120;52.336;21.182;2023-04-28T08:32:56;0.20;;;0.20;;
17065;SDS011;23120;52.336;21.182;2023-04-28T08:35:23;0.30;;;0.30;;
17065;SDS011;23120;52.336;21.182;2023-04-28T08:37:50;0.20;;;0.20;;
17065;SDS011;23120;52.336;21.182;2023-04-28T08:40:17;0.20;;;0.20;;
17065;SDS011;23120;52.336;21.182;2023-04-28T08:42:44;0.20;;;0.20;;
17065;SDS011;23120;52.336;21.182;2023-04-28T08:45:12;0.20;;;0.20;;
17065;SDS011;23120;52.336;21.182;2023-04-28T08:47:44;0.20;;;0.20;;
17065;SDS011;23120;52.336;21.182;2023-04-28T08:50:14;0.20;;;0.20;;
17065;SDS011;23120;52.336;21.182;2023-04-28T08:52:46;0.20;;;0.20;;
17065;SDS011;23120;52.336;21.182;2023-04-28T08:55:13;0.20;;;0.20;;
17065;SDS011;23120;52.336;21.182;2023-04-28T08:57:42;0.20;;;0.20;;
17065;SDS011;23120;52.336;21.182;2023-04-28T09:00:13;0.20;;;0.20;;
17065;SDS011;23120;52.336;21.182;2023-04-28T09:02:40;0.20;;;0.20;;
17065;SDS011;23120;52.336;21.182;2023-04-28T09:05:09;0.13;;;0.13;;
17065;SDS011;23120;52.336;21.182;2023-04-28T09:07:38;0.20;;;0.20;;
17065;SDS011;23120;52.336;21.182;2023-04-28T09:10:14;0.20;;;0.20;;
17065;SDS011;23120;52.336;21.182;2023-04-28T09:12:42;0.20;;;0.20;;
17065;SDS011;23120;52.336;21.182;2023-04-28T09:15:09;0.20;;;0.20;;
17065;SDS011;23120;52.336;21.182;2023-04-28T09:17:46;0.20;;;0.20;;
17065;SDS011;23120;52.336;21.182;2023-04-28T09:20:19;0.20;;;0.20;;
17065;SDS011;23120;52.336;21.182;2023-04-28T09:22:47;0.20;;;0.20;;
17065;SDS011;23120;52.336;21.182;2023-04-28T09:25:15;0.20;;;0.20;;
17065;SDS011;23120;52.336;21.182;2023-04-28T09:27:42;0.20;;;0.20;;
17065;SDS011;23120;52.336;21.182;2023-04-28T09:30:10;0.20;;;0.20;;
17065;SDS011;23120;52.336;21.182;2023-04-28T09:32:37;0.20;;;0.20;;
17065;SDS011;23120;52.336;21.182;2023-04-28T09:35:04;0.20;;;0.20;;
17065;SDS011;23120;52.336;21.182;2023-04-28T09:37:33;0.20;;;0.20;;
17065;SDS011;23120;52.336;21.182;2023-04-28T09:40:02;0.20;;;0.20;;
17065;SDS011;23120;52.336;21.182;2023-04-28T09:42:36;0.20;;;0.20;;
17065;SDS011;23120;52.336;21.182;2023-04-28T09:45:04;0.20;;;0.20;;
17065;SDS011;23120;52.336;21.182;2023-04-28T09:47:33;0.20;;;0.20;;
17065;SDS011;23120;52.336;21.182;2023-04-28T09:50:02;0.20;;;0.20;;
17065;SDS011;23120;52.336;21.182;2023-04-28T09:52:31;0.20;;;0.20;;
17065;SDS011;23120;52.336;21.182;2023-04-28T09:55:01;0.20;;;0.20;;
17065;SDS011;23120;52.336;21.182;2023-04-28T09:57:29;0.20;;;0.20;;
17065;SDS011;23120;52.336;21.182;2023-04-28T09:59:58;0.20;;;0.20;;
17065;SDS011;23120;52.336;21.182;2023-04-28T10:02:26;0.20;;;0.20;;
17065;SDS011;23120;52.336;21.182;2023-04-28T10:04:55;0.20;;;0.20;;
17065;SDS011;23120;52.336;21.182;2023-04-28T10:07:22;0.20;;;0.20;;
17065;SDS011;23120;52.336;21.182;2023-04-28T10:09:50;0.20;;;0.20;;
17065;SDS011;23120;52.336;21.182;2023-04-28T10:12:18;0.20;;;0.20;;
17065;SDS011;23120;52.336;21.182;2023-04-28T10:14:46;0.20;;;0.20;;
17065;SDS011;23120;52.336;21.182;2023-04-28T10:17:15;0.10;;;0.10;;
17065;SDS011;23120;52.336;21.182;2023-04-28T10:19:42;0.20;;;0.20;;
17065;SDS011;23120;52.336;21.182;2023-04-28T10:22:23;0.20;;;0.20;;
17065;SDS011;23120;52.336;21.182;2023-04-28T10:25:15;0.10;;;0.10;;
17065;SDS011;23120;52.336;21.182;2023-04-28T10:27:50;0.20;;;0.20;;
17065;SDS011;23120;52.336;21.182;2023-04-28T10:30:18;0.20;;;0.20;;
17065;SDS011;23120;52.336;21.182;2023-04-28T10:32:46;0.20;;;0.20;;
17065;SDS011;23120;52.336;21.182;2023-04-28T10:35:40;0.20;;;0.20;;
17065;SDS011;23120;52.336;21.182;2023-04-28T10:38:09;0.20;;;0.20;;
17065;SDS011;23120;52.336;21.182;2023-04-28T10:40:39;0.20;;;0.20;;
17065;SDS011;23120;52.336;21.182;2023-04-28T10:43:07;0.20;;;0.20;;
17065;SDS011;23120;52.336;21.182;2023-04-28T10:51:21;0.20;;;0.20;;
17065;SDS011;23120;52.336;21.182;2023-04-28T10:59:43;0.20;;;0.20;;
17065;SDS011;23120;52.336;21.182;2023-04-28T11:05:12;0.20;;;0.20;;
17065;SDS011;23120;52.336;21.182;2023-04-28T11:07:42;0.20;;;0.20;;
17065;SDS011;23120;52.336;21.182;2023-04-28T11:13:40;0.20;;;0.20;;
17065;SDS011;23120;52.336;21.182;2023-04-28T11:16:15;0.10;;;0.10;;
17065;SDS011;23120;52.336;21.182;2023-04-28T11:18:50;0.20;;;0.20;;
17065;SDS011;23120;52.336;21.182;2023-04-28T11:21:30;0.10;;;0.10;;
17065;SDS011;23120;52.336;21.182;2023-04-28T11:23:57;0.10;;;0.10;;
17065;SDS011;23120;52.336;21.182;2023-04-28T11:26:24;0.10;;;0.10;;
17065;SDS011;23120;52.336;21.182;2023-04-28T11:28:55;0.20;;;0.20;;
17065;SDS011;23120;52.336;21.182;2023-04-28T11:31:23;0.20;;;0.20;;
17065;SDS011;23120;52.336;21.182;2023-04-28T11:34:02;0.20;;;0.20;;
17065;SDS011;23120;52.336;21.182;2023-04-28T11:36:31;0.10;;;0.10;;
17065;SDS011;23120;52.336;21.182;2023-04-28T11:38:59;0.10;;;0.10;;
17065;SDS011;23120;52.336;21.182;2023-04-28T11:41:27;0.10;;;0.10;;
17065;SDS011;23120;52.336;21.182;2023-04-28T11:43:55;0.10;;;0.10;;
17065;SDS011;23120;52.336;21.182;2023-04-28T11:46:22;0.10;;;0.10;;
17065;SDS011;23120;52.336;21.182;2023-04-28T11:48:58;0.10;;;0.10;;
17065;SDS011;23120;52.336;21.182;2023-04-28T11:51:28;0.10;;;0.10;;
17065;SDS011;23120;52.336;21.182;2023-04-28T11:54:03;0.10;;;0.10;;
17065;SDS011;23120;52.336;21.182;2023-04-28T11:56:35;0.13;;;0.13;;
17065;SDS011;23120;52.336;21.182;2023-04-28T11:59:04;0.10;;;0.10;;
17065;SDS011;23120;52.336;21.182;2023-04-28T12:01:33;0.10;;;0.10;;
17065;SDS011;23120;52.336;21.182;2023-04-28T12:04:12;0.20;;;0.20;;
17065;SDS011;23120;52.336;21.182;2023-04-28T12:06:39;0.10;;;0.10;;
17065;SDS011;23120;52.336;21.182;2023-04-28T12:09:16;0.10;;;0.10;;
17065;SDS011;23120;52.336;21.182;2023-04-28T12:11:54;0.10;;;0.10;;
17065;SDS011;23120;52.336;21.182;2023-04-28T12:14:33;0.10;;;0.10;;
17065;SDS011;23120;52.336;21.182;2023-04-28T12:17:40;0.10;;;0.10;;
17065;SDS011;23120;52.336;21.182;2023-04-28T12:21:18;0.20;;;0.20;;
17065;SDS011;23120;52.336;21.182;2023-04-28T12:23:46;0.10;;;0.10;;
17065;SDS011;23120;52.336;21.182;2023-04-28T12:26:13;0.10;;;0.10;;
17065;SDS011;23120;52.336;21.182;2023-04-28T12:28:49;0.10;;;0.10;;
17065;SDS011;23120;52.336;21.182;2023-04-28T12:31:18;0.20;;;0.20;;
17065;SDS011;23120;52.336;21.182;2023-04-28T12:33:45;0.20;;;0.20;;
17065;SDS011;23120;52.336;21.182;2023-04-28T12:36:14;0.10;;;0.10;;
17065;SDS011;23120;52.336;21.182;2023-04-28T12:38:48;0.10;;;0.10;;
17065;SDS011;23120;52.336;21.182;2023-04-28T12:41:19;0.10;;;0.10;;
17065;SDS011;23120;52.336;21.182;2023-04-28T12:43:51;0.10;;;0.10;;
17065;SDS011;23120;52.336;21.182;2023-04-28T12:49:26;0.10;;;0.10;;
17065;SDS011;23120;52.336;21.182;2023-04-28T12:51:56;0.10;;;0.10;;
17065;SDS011;23120;52.336;21.182;2023-04-28T12:54:23;0.10;;;0.10;;
17065;SDS011;23120;52.336;21.182;2023-04-28T12:56:51;0.10;;;0.10;;
17065;SDS011;23120;52.336;21.182;2023-04-28T12:59:21;0.10;;;0.10;;
17065;SDS011;23120;52.336;21.182;2023-04-28T13:01:49;0.10;;;0.10;;
17065;SDS011;23120;52.336;21.182;2023-04-28T13:04:17;0.10;;;0.10;;
17065;SDS011;23120;52.336;21.182;2023-04-28T13:06:44;0.10;;;0.10;;
17065;SDS011;23120;52.336;21.182;2023-04-28T13:09:18;0.03;;;0.03;;
17065;SDS011;23120;52.336;21.182;2023-04-28T13:11:45;0.10;;;0.10;;
17065;SDS011;23120;52.336;21.182;2023-04-28T13:14:12;0.10;;;0.10;;
17065;SDS011;23120;52.336;21.182;2023-04-28T13:16:39;0.10;;;0.10;;
17065;SDS011;23120;52.336;21.182;2023-04-28T13:19:08;0.10;;;0.10;;
17065;SDS011;23120;52.336;21.182;2023-04-28T13:21:39;0.10;;;0.10;;
17065;SDS011;23120;52.336;21.182;2023-04-28T13:24:14;0.10;;;0.10;;
17065;SDS011;23120;52.336;21.182;2023-04-28T13:26:41;0.10;;;0.10;;
17065;SDS011;23120;52.336;21.182;2023-04-28T13:29:09;0.10;;;0.10;;
17065;SDS011;23120;52.336;21.182;2023-04-28T13:31:36;0.05;;;0.05;;
17065;SDS011;23120;52.336;21.182;2023-04-28T13:34:05;0.10;;;0.10;;
17065;SDS011;23120;52.336;21.182;2023-04-28T13:36:33;0.10;;;0.10;;
17065;SDS011;23120;52.336;21.182;2023-04-28T13:39:02;0.10;;;0.10;;
17065;SDS011;23120;52.336;21.182;2023-04-28T13:41:30;0.10;;;0.10;;
17065;SDS011;23120;52.336;21.182;2023-04-28T13:43:57;0.10;;;0.10;;
17065;SDS011;23120;52.336;21.182;2023-04-28T13:46:24;0.10;;;0.10;;
17065;SDS011;23120;52.336;21.182;2023-04-28T13:48:51;0.10;;;0.10;;
17065;SDS011;23120;52.336;21.182;2023-04-28T13:51:17;0.10;;;0.10;;
17065;SDS011;23120;52.336;21.182;2023-04-28T13:53:44;0.10;;;0.10;;
17065;SDS011;23120;52.336;21.182;2023-04-28T13:56:13;0.10;;;0.10;;
17065;SDS011;23120;52.336;21.182;2023-04-28T13:58:39;0.10;;;0.10;;
17065;SDS011;23120;52.336;21.182;2023-04-28T14:01:06;0.10;;;0.10;;
17065;SDS011;23120;52.336;21.182;2023-04-28T14:03:35;0.10;;;0.10;;
17065;SDS011;23120;52.336;21.182;2023-04-28T14:06:02;0.10;;;0.10;;
17065;SDS011;23120;52.336;21.182;2023-04-28T14:08:29;0.10;;;0.10;;
17065;SDS011;23120;52.336;21.182;2023-04-28T14:10:56;0.10;;;0.10;;
17065;SDS011;23120;52.336;21.182;2023-04-28T14:13:24;0.10;;;0.10;;
17065;SDS011;23120;52.336;21.182;2023-04-28T14:15:51;0.10;;;0.10;;
17065;SDS011;23120;52.336;21.182;2023-04-28T14:18:18;0.10;;;0.10;;
17065;SDS011;23120;52.336;21.182;2023-04-28T14:20:45;0.10;;;0.10;;
17065;SDS011;23120;52.336;21.182;2023-04-28T14:23:13;0.10;;;0.10;;
17065;SDS011;23120;52.336;21.182;2023-04-28T14:25:40;0.10;;;0.10;;
17065;SDS011;23120;52.336;21.182;2023-04-28T14:28:07;0.10;;;0.10;;
17065;SDS011;23120;52.336;21.182;2023-04-28T14:30:35;0.10;;;0.10;;
17065;SDS011;23120;52.336;21.182;2023-04-28T14:33:02;0.10;;;0.10;;
17065;SDS011;23120;52.336;21.182;2023-04-28T14:35:29;0.10;;;0.10;;
17065;SDS011;23120;52.336;21.182;2023-04-28T14:37:56;0.10;;;0.10;;
17065;SDS011;23120;52.336;21.182;2023-04-28T14:40:23;0.10;;;0.10;;
17065;SDS011;23120;52.336;21.182;2023-04-28T14:42:50;0.10;;;0.10;;
17065;SDS011;23120;52.336;21.182;2023-04-28T14:45:16;0.10;;;0.10;;
17065;SDS011;23120;52.336;21.182;2023-04-28T14:47:45;0.10;;;0.10;;
17065;SDS011;23120;52.336;21.182;2023-04-28T14:50:13;0.10;;;0.10;;
17065;SDS011;23120;52.336;21.182;2023-04-28T14:52:40;0.10;;;0.10;;
17065;SDS011;23120;52.336;21.182;2023-04-28T14:55:07;0.10;;;0.10;;
17065;SDS011;23120;52.336;21.182;2023-04-28T14:57:34;0.10;;;0.10;;
17065;SDS011;23120;52.336;21.182;2023-04-28T15:00:02;0.10;;;0.10;;
17065;SDS011;23120;52.336;21.182;2023-04-28T15:02:32;0.10;;;0.10;;
17065;SDS011;23120;52.336;21.182;2023-04-28T15:05:00;0.10;;;0.10;;